Time;durP1;ratioP1;P1;durP2;ratioP2;P2;SDS_P1;SDS_P2;PMS_P1;PMS_P2;Temp;Humidity;BMP_temperature;BMP_pressure;BME280_temperature;BME280_humidity;BME280_pressure;Samples;Min_cycle;Max_cycle;Signal;HPM_P1;HPM_P2
2021/10/05 00:01:34;;;;;;;13.57;2.17;;;15.10;85.60;;;;;;5104852;28;20023;-75
2021/10/05 00:04:00;;;;;;;9.85;1.70;;;15.10;85.80;;;;;;5101499;28;20062;-75
2021/10/05 00:06:26;;;;;;;9.52;1.77;;;15.10;85.80;;;;;;5103988;28;20612;-75
2021/10/05 00:08:52;;;;;;;12.23;2.00;;;15.10;85.70;;;;;;5105441;28;20019;-75
2021/10/05 00:11:18;;;;;;;6.82;1.67;;;15.00;86.10;;;;;;5109134;28;20088;-74
2021/10/05 00:13:47;;;;;;;6.60;1.67;;;15.10;85.90;;;;;;5118958;28;20477;-75
2021/10/05 00:16:12;;;;;;;7.60;1.42;;;15.20;86.10;;;;;;5119670;28;20148;-75
2021/10/05 00:18:39;;;;;;;8.30;1.65;;;15.10;86.10;;;;;;5119794;28;20061;-75
2021/10/05 00:21:04;;;;;;;5.80;1.40;;;15.00;86.30;;;;;;5101924;28;20057;-74
2021/10/05 00:23:30;;;;;;;5.82;1.35;;;15.10;86.70;;;;;;5099278;28;20502;-75
2021/10/05 00:25:56;;;;;;;4.13;1.23;;;15.00;86.40;;;;;;5117389;28;21019;-75
2021/10/05 00:28:22;;;;;;;9.82;1.73;;;15.10;86.20;;;;;;5102468;28;20257;-75
2021/10/05 00:30:50;;;;;;;11.30;1.55;;;15.10;86.10;;;;;;5106643;28;20058;-74
2021/10/05 00:33:15;;;;;;;5.10;1.60;;;15.20;86.10;;;;;;5096783;28;20089;-74
2021/10/05 00:35:41;;;;;;;4.95;1.52;;;15.20;86.10;;;;;;5099001;28;20023;-75
2021/10/05 00:38:07;;;;;;;8.52;1.65;;;15.20;86.40;;;;;;5098944;28;20502;-74
2021/10/05 00:40:33;;;;;;;9.32;1.48;;;15.20;86.50;;;;;;5098752;28;20391;-75
2021/10/05 00:42:59;;;;;;;8.65;1.75;;;15.20;86.60;;;;;;5098724;28;20059;-75
2021/10/05 00:45:25;;;;;;;9.50;1.33;;;15.20;86.40;;;;;;5098874;28;20035;-74
2021/10/05 00:47:55;;;;;;;10.48;1.80;;;15.20;86.40;;;;;;5098758;28;20028;-75
2021/10/05 00:50:21;;;;;;;10.98;1.83;;;15.20;86.60;;;;;;5084555;28;20035;-74
2021/10/05 00:52:47;;;;;;;5.68;1.58;;;15.20;86.50;;;;;;5110690;28;20028;-75
2021/10/05 00:55:13;;;;;;;8.80;1.92;;;15.20;86.60;;;;;;5119006;28;20046;-75
2021/10/05 00:57:39;;;;;;;5.38;2.20;;;15.20;86.60;;;;;;5118979;28;20062;-75
2021/10/05 01:00:06;;;;;;;15.55;1.50;;;15.30;86.60;;;;;;5104559;28;20020;-75
2021/10/05 01:02:32;;;;;;;8.23;1.63;;;15.20;86.60;;;;;;5098476;28;20038;-75
2021/10/05 01:05:00;;;;;;;15.25;1.80;;;15.20;86.70;;;;;;5098476;28;20477;-75
2021/10/05 01:07:26;;;;;;;7.90;1.98;;;15.30;86.70;;;;;;5098429;28;20062;-76
2021/10/05 01:09:55;;;;;;;6.72;1.52;;;15.20;86.60;;;;;;5098210;28;20039;-74
2021/10/05 01:12:20;;;;;;;7.25;1.70;;;15.30;86.80;;;;;;5108954;28;20020;-75
2021/10/05 01:14:46;;;;;;;7.45;1.70;;;15.30;86.70;;;;;;5100993;28;20394;-75
2021/10/05 01:17:12;;;;;;;7.53;1.80;;;15.30;86.70;;;;;;5098144;28;20024;-75
2021/10/05 01:19:40;;;;;;;8.95;1.50;;;15.30;86.90;;;;;;5098070;28;20044;-75
2021/10/05 01:22:08;;;;;;;5.13;1.33;;;15.30;87.10;;;;;;5098105;28;20028;-75
2021/10/05 01:24:35;;;;;;;13.63;1.65;;;15.30;87.00;;;;;;5103694;28;20089;-75
2021/10/05 01:27:01;;;;;;;7.70;1.55;;;15.40;86.90;;;;;;5100098;28;20028;-75
2021/10/05 01:29:29;;;;;;;9.32;1.60;;;15.40;86.90;;;;;;5117955;28;20044;-75
2021/10/05 01:31:57;;;;;;;12.23;1.83;;;15.30;87.40;;;;;;5113785;28;20084;-75
2021/10/05 01:34:24;;;;;;;9.55;1.30;;;15.30;87.60;;;;;;5099723;28;20075;-74
2021/10/05 01:36:51;;;;;;;9.75;2.13;;;15.40;87.60;;;;;;5095468;28;20123;-75
2021/10/05 01:39:28;;;;;;;4.70;1.50;;;15.40;87.70;;;;;;5096311;28;20514;-75
2021/10/05 01:41:56;;;;;;;7.45;1.50;;;15.40;87.70;;;;;;5097843;28;20032;-74
2021/10/05 01:44:22;;;;;;;6.22;1.40;;;15.50;87.80;;;;;;5113058;28;20042;-75
2021/10/05 01:46:50;;;;;;;10.07;1.63;;;15.50;88.00;;;;;;5117922;28;20028;-75
2021/10/05 01:49:17;;;;;;;3.65;1.20;;;15.50;88.10;;;;;;5099274;28;20028;-75
2021/10/05 01:51:44;;;;;;;6.53;1.20;;;15.50;88.20;;;;;;5099066;28;20032;-75
2021/10/05 01:54:10;;;;;;;6.07;1.17;;;15.50;88.40;;;;;;5117880;28;20024;-75
2021/10/05 01:56:36;;;;;;;5.25;1.20;;;15.40;89.00;;;;;;5105245;28;20031;-75
2021/10/05 01:59:02;;;;;;;4.53;1.25;;;15.40;89.40;;;;;;5097444;28;20020;-75
2021/10/05 02:01:28;;;;;;;8.23;1.13;;;15.40;89.40;;;;;;5097316;28;20069;-75
2021/10/05 02:03:54;;;;;;;9.00;1.42;;;15.40;89.40;;;;;;5097787;28;20028;-75
2021/10/05 02:06:20;;;;;;;8.88;1.90;;;15.30;89.40;;;;;;5117722;28;20542;-75
2021/10/05 02:08:45;;;;;;;4.88;1.02;;;15.40;89.60;;;;;;5117551;28;20024;-75
2021/10/05 02:11:11;;;;;;;6.75;1.17;;;15.40;89.60;;;;;;5088633;28;20036;-75
2021/10/05 02:13:40;;;;;;;2.45;0.82;;;15.30;89.60;;;;;;5099871;28;20019;-75
2021/10/05 02:16:05;;;;;;;7.18;1.25;;;15.30;89.60;;;;;;5086896;28;20034;-75
2021/10/05 02:18:31;;;;;;;4.35;1.00;;;15.30;89.60;;;;;;5107783;28;20461;-75
2021/10/05 02:20:57;;;;;;;4.65;0.93;;;15.30;89.80;;;;;;5102117;28;20039;-75
2021/10/05 02:23:23;;;;;;;4.50;0.95;;;15.30;90.20;;;;;;5095818;28;20056;-74
2021/10/05 02:25:49;;;;;;;4.03;0.70;;;15.30;90.10;;;;;;5104876;28;20035;-74
2021/10/05 02:28:14;;;;;;;8.05;1.23;;;15.30;90.00;;;;;;5097514;28;20028;-75
2021/10/05 02:30:42;;;;;;;3.95;0.90;;;15.30;90.20;;;;;;5116568;28;20306;-74
2021/10/05 02:33:08;;;;;;;5.05;0.95;;;15.30;90.00;;;;;;5115462;28;20043;-75
2021/10/05 02:35:33;;;;;;;6.05;0.88;;;15.30;90.10;;;;;;5096611;28;20039;-75
2021/10/05 02:37:59;;;;;;;3.28;0.77;;;15.30;90.10;;;;;;5098692;28;20038;-75
2021/10/05 02:40:25;;;;;;;1.70;0.65;;;15.30;89.90;;;;;;5099680;28;20509;-75
2021/10/05 02:42:50;;;;;;;3.42;0.90;;;15.30;90.10;;;;;;5104070;28;20027;-74
2021/10/05 02:45:16;;;;;;;1.17;0.80;;;15.30;90.20;;;;;;5105111;28;20059;-74
2021/10/05 02:47:42;;;;;;;5.40;1.10;;;15.30;90.50;;;;;;5113457;28;20022;-75
2021/10/05 02:50:08;;;;;;;2.95;0.70;;;15.30;90.60;;;;;;5096293;28;20091;-75
2021/10/05 02:52:33;;;;;;;3.55;0.80;;;15.30;90.70;;;;;;5102553;28;20031;-75
2021/10/05 02:54:59;;;;;;;2.30;0.85;;;15.30;90.60;;;;;;5106790;28;20024;-74
2021/10/05 02:57:25;;;;;;;1.60;0.55;;;15.30;90.60;;;;;;5096309;28;20477;-75
2021/10/05 02:59:50;;;;;;;2.72;0.90;;;15.30;90.70;;;;;;5096247;28;20039;-75
2021/10/05 03:02:16;;;;;;;2.55;0.80;;;15.30;90.70;;;;;;5096016;28;20028;-74
2021/10/05 03:04:42;;;;;;;3.45;0.80;;;15.30;90.80;;;;;;5101989;28;20035;-75
2021/10/05 03:07:08;;;;;;;3.20;1.10;;;15.30;90.80;;;;;;5106949;28;20071;-75
2021/10/05 03:09:35;;;;;;;1.55;0.82;;;15.30;90.60;;;;;;5096058;28;20497;-75
2021/10/05 03:12:02;;;;;;;1.17;0.75;;;15.30;90.80;;;;;;5094666;28;20020;-75
2021/10/05 03:14:27;;;;;;;2.13;0.82;;;15.40;90.60;;;;;;5098565;28;20020;-75
2021/10/05 03:16:53;;;;;;;2.58;0.80;;;15.40;90.70;;;;;;5095466;28;20059;-75
2021/10/05 03:19:19;;;;;;;1.70;1.00;;;15.30;90.90;;;;;;5095983;28;20475;-74
2021/10/05 03:21:47;;;;;;;2.58;0.98;;;15.30;90.90;;;;;;5101143;28;20126;-75
2021/10/05 03:24:12;;;;;;;1.25;0.95;;;15.40;91.00;;;;;;5099501;28;20028;-75
2021/10/05 03:26:38;;;;;;;1.42;1.10;;;15.40;91.30;;;;;;5114356;28;20087;-75
2021/10/05 03:29:04;;;;;;;2.38;1.00;;;15.30;91.30;;;;;;5116107;28;20054;-75
2021/10/05 03:31:30;;;;;;;1.23;0.88;;;15.30;91.60;;;;;;5107995;28;20039;-75
2021/10/05 03:33:56;;;;;;;2.10;1.40;;;15.30;91.90;;;;;;5095906;28;20029;-75
2021/10/05 03:36:22;;;;;;;1.83;1.05;;;15.30;92.30;;;;;;5086580;28;20034;-75
2021/10/05 03:38:48;;;;;;;1.90;0.90;;;15.30;92.00;;;;;;5093591;28;20044;-74
2021/10/05 03:41:14;;;;;;;1.30;0.85;;;15.30;92.20;;;;;;5107547;28;20031;-74
2021/10/05 03:43:40;;;;;;;5.05;1.10;;;15.30;92.20;;;;;;5115829;28;20039;-74
2021/10/05 03:46:06;;;;;;;3.72;1.00;;;15.40;92.40;;;;;;5097655;28;20031;-74
2021/10/05 03:48:33;;;;;;;1.25;0.80;;;15.30;92.20;;;;;;5092684;28;20036;-74
2021/10/05 03:50:59;;;;;;;0.90;0.65;;;15.40;92.20;;;;;;5095418;28;20519;-75
2021/10/05 03:53:25;;;;;;;1.23;0.63;;;15.30;91.90;;;;;;5102497;28;20079;-74
2021/10/05 03:55:58;;;;;;;2.47;0.68;;;15.40;91.90;;;;;;5115807;28;20023;-75
2021/10/05 03:58:25;;;;;;;1.52;0.70;;;15.50;91.90;;;;;;5097450;28;20465;-74
2021/10/05 04:00:52;;;;;;;0.85;0.45;;;15.40;91.80;;;;;;5109364;28;20026;-74
2021/10/05 04:03:18;;;;;;;1.30;0.47;;;15.50;91.70;;;;;;5098048;28;20073;-74
2021/10/05 04:05:44;;;;;;;2.03;0.35;;;15.50;91.50;;;;;;5095450;28;20103;-74
2021/10/05 04:08:10;;;;;;;1.98;0.50;;;15.50;91.50;;;;;;5095098;28;20052;-75
2021/10/05 04:10:36;;;;;;;3.58;0.70;;;15.70;91.70;;;;;;5095240;28;20401;-75
2021/10/05 04:13:02;;;;;;;3.47;0.47;;;15.70;91.00;;;;;;5095285;28;20490;-74
2021/10/05 04:15:28;;;;;;;0.73;0.40;;;15.50;91.10;;;;;;5098258;28;20512;-75
2021/10/05 04:17:54;;;;;;;1.00;0.50;;;15.40;91.80;;;;;;5097427;28;20028;-74
2021/10/05 04:20:19;;;;;;;1.40;0.43;;;15.30;91.70;;;;;;5094797;28;20058;-74
2021/10/05 04:22:45;;;;;;;0.52;0.30;;;15.20;91.90;;;;;;5106773;28;20027;-74
2021/10/05 04:25:11;;;;;;;1.52;0.40;;;15.20;91.50;;;;;;5108402;28;20024;-77
2021/10/05 04:27:38;;;;;;;3.20;0.40;;;15.20;91.70;;;;;;5114446;28;20068;-75
2021/10/05 04:30:16;;;;;;;1.38;0.50;;;15.10;91.20;;;;;;5108286;28;20482;-75
2021/10/05 04:32:42;;;;;;;3.42;0.50;;;15.10;90.50;;;;;;5093029;28;20039;-75
2021/10/05 04:35:08;;;;;;;0.50;0.50;;;15.00;90.50;;;;;;5095099;28;20028;-75
2021/10/05 04:37:33;;;;;;;4.18;0.70;;;15.00;90.40;;;;;;5094999;28;20063;-76
2021/10/05 04:39:59;;;;;;;1.75;0.60;;;15.00;89.60;;;;;;5094821;28;20109;-78
2021/10/05 04:48:41;;;;;;;2.28;0.63;;;14.60;89.00;;;;;;5072707;28;20387;-79
2021/10/05 04:51:07;;;;;;;3.67;0.90;;;14.50;90.10;;;;;;5071225;28;20037;-79
2021/10/05 04:53:32;;;;;;;2.08;0.60;;;14.50;90.20;;;;;;5054326;28;20086;-76
2021/10/05 04:55:58;;;;;;;5.78;0.60;;;14.50;89.80;;;;;;5052259;28;20028;-76
2021/10/05 04:58:27;;;;;;;5.28;0.90;;;14.60;89.00;;;;;;5071145;28;20455;-79
2021/10/05 05:00:52;;;;;;;3.28;0.70;;;14.60;89.20;;;;;;5065824;28;20036;-77
2021/10/05 05:03:18;;;;;;;0.98;0.50;;;14.60;88.90;;;;;;5052467;28;20029;-77
2021/10/05 05:05:44;;;;;;;2.75;0.70;;;14.70;88.80;;;;;;5051908;28;20079;-82
2021/10/05 05:08:09;;;;;;;5.25;0.90;;;14.70;89.00;;;;;;5052139;28;20580;-77
2021/10/05 05:10:35;;;;;;;6.50;1.20;;;14.70;88.90;;;;;;5066355;28;20490;-75
2021/10/05 05:13:01;;;;;;;4.38;0.77;;;14.70;88.60;;;;;;5065085;28;20031;-74
2021/10/05 05:15:44;;;;;;;;;;;;;;;;;;;;;
2021/10/05 05:18:09;;;;;;;5.22;1.25;;;14.70;88.20;;;;;;5070847;28;20033;-78
2021/10/05 05:20:35;;;;;;;3.78;0.90;;;14.80;88.50;;;;;;5055055;28;20053;-80
2021/10/05 05:23:01;;;;;;;3.78;0.90;;;14.80;88.10;;;;;;5053116;28;20503;-78
2021/10/05 05:25:26;;;;;;;3.25;0.80;;;14.80;88.00;;;;;;5056448;28;20075;-82
2021/10/05 05:27:52;;;;;;;6.25;1.00;;;14.80;88.00;;;;;;5071317;28;20036;-82
2021/10/05 05:30:18;;;;;;;2.70;0.85;;;14.70;87.60;;;;;;5071772;28;20017;-82
2021/10/05 05:32:56;;;;;;;;;;;;;;;;;;;;;
2021/10/05 05:35:22;;;;;;;4.60;1.00;;;14.70;88.10;;;;;;5060546;28;20027;-82
2021/10/05 05:37:48;;;;;;;4.25;1.10;;;14.60;87.70;;;;;;5071033;28;20493;-82
2021/10/05 05:40:13;;;;;;;5.70;1.30;;;14.60;88.40;;;;;;5064959;28;20036;-82
2021/10/05 05:42:39;;;;;;;6.45;1.13;;;14.60;88.30;;;;;;5070096;28;20072;-81
2021/10/05 05:45:05;;;;;;;7.68;1.05;;;14.50;87.60;;;;;;5071521;28;20522;-81
2021/10/05 05:47:31;;;;;;;8.73;1.30;;;14.40;87.80;;;;;;5067841;28;20491;-82
2021/10/05 05:50:00;;;;;;;7.47;1.55;;;14.40;88.00;;;;;;5062337;28;20547;-81
2021/10/05 05:52:25;;;;;;;8.38;1.23;;;14.30;87.70;;;;;;5069923;28;20469;-81
2021/10/05 05:54:51;;;;;;;7.97;1.20;;;14.30;88.20;;;;;;5070125;28;20060;-81
2021/10/05 05:57:17;;;;;;;9.65;1.77;;;14.30;87.60;;;;;;5071215;28;20115;-83
2021/10/05 05:59:43;;;;;;;7.95;1.30;;;14.20;87.30;;;;;;5059951;28;20051;-83
2021/10/05 06:02:08;;;;;;;10.40;1.75;;;14.10;88.00;;;;;;5056398;28;20422;-83
2021/10/05 06:04:34;;;;;;;3.20;1.00;;;14.00;87.80;;;;;;5057688;28;20021;-84
2021/10/05 06:07:00;;;;;;;3.40;1.00;;;14.00;88.10;;;;;;5057561;28;20053;-83
2021/10/05 06:09:25;;;;;;;5.55;1.20;;;14.00;87.40;;;;;;5052677;28;20048;-83
2021/10/05 06:11:58;;;;;;;3.03;0.93;;;13.90;88.10;;;;;;5037849;28;20410;-81
2021/10/05 06:14:28;;;;;;;8.95;1.00;;;13.80;87.90;;;;;;5036515;28;20048;-83
2021/10/05 06:16:53;;;;;;;8.70;1.23;;;13.80;88.30;;;;;;5037466;28;20032;-84
2021/10/05 06:19:19;;;;;;;6.55;1.10;;;13.80;87.90;;;;;;5037843;28;20025;-83
2021/10/05 06:21:45;;;;;;;8.68;1.50;;;13.80;88.20;;;;;;5037641;28;20411;-84
2021/10/05 06:24:10;;;;;;;2.22;1.02;;;13.80;88.30;;;;;;5042985;28;20471;-81
2021/10/05 06:26:37;;;;;;;6.80;1.25;;;13.80;88.40;;;;;;5044777;28;20064;-81
2021/10/05 06:29:02;;;;;;;5.05;0.90;;;13.70;87.90;;;;;;5057607;28;20124;-83
2021/10/05 06:31:28;;;;;;;4.50;1.38;;;13.80;88.40;;;;;;5055579;28;20487;-84
2021/10/05 06:33:54;;;;;;;10.43;1.60;;;13.80;88.30;;;;;;5047129;28;20032;-84
2021/10/05 06:36:19;;;;;;;6.05;1.10;;;13.70;87.20;;;;;;5037225;28;20103;-82
2021/10/05 06:38:45;;;;;;;12.10;1.63;;;13.70;87.80;;;;;;5052476;28;20025;-82
2021/10/05 06:41:11;;;;;;;7.80;0.93;;;13.70;87.40;;;;;;5057085;28;20025;-81
2021/10/05 06:43:36;;;;;;;9.98;1.83;;;13.70;87.30;;;;;;5054844;28;20128;-82
2021/10/05 06:46:03;;;;;;;6.60;0.95;;;13.70;88.20;;;;;;5057059;28;20093;-84
2021/10/05 06:48:29;;;;;;;7.97;1.10;;;13.70;87.50;;;;;;5050919;28;20068;-84
2021/10/05 06:50:55;;;;;;;6.63;1.25;;;13.60;86.80;;;;;;5037094;28;20021;-84
2021/10/05 06:53:21;;;;;;;5.68;1.02;;;13.70;87.60;;;;;;5052352;28;20109;-83
2021/10/05 06:55:46;;;;;;;9.52;1.42;;;13.70;87.70;;;;;;5041781;28;20021;-84
2021/10/05 06:58:13;;;;;;;7.07;1.33;;;13.70;86.90;;;;;;5056866;28;20036;-84
2021/10/05 07:00:39;;;;;;;10.98;1.50;;;13.70;86.70;;;;;;5056104;28;20024;-83
2021/10/05 07:03:05;;;;;;;11.90;1.30;;;13.70;86.60;;;;;;5055961;28;20029;-83
2021/10/05 07:05:31;;;;;;;13.20;1.60;;;13.70;86.90;;;;;;5055093;28;20112;-84
2021/10/05 07:07:57;;;;;;;8.30;1.40;;;13.70;86.90;;;;;;5056514;28;20056;-83
2021/10/05 07:10:23;;;;;;;11.18;1.17;;;13.80;86.60;;;;;;5055770;28;20044;-83
2021/10/05 07:12:50;;;;;;;7.32;1.05;;;13.90;85.70;;;;;;5056763;28;20143;-83
2021/10/05 07:15:16;;;;;;;8.30;2.25;;;14.00;84.70;;;;;;5038662;28;20018;-83
2021/10/05 07:17:43;;;;;;;7.75;1.45;;;14.10;85.30;;;;;;5048516;28;20764;-83
2021/10/05 07:20:09;;;;;;;12.95;1.38;;;14.30;85.10;;;;;;5049937;28;20021;-83
2021/10/05 07:22:35;;;;;;;8.93;1.08;;;14.40;85.10;;;;;;5036491;28;20048;-83
2021/10/05 07:25:01;;;;;;;4.00;1.05;;;14.50;82.70;;;;;;5053599;28;20454;-84
2021/10/05 07:27:27;;;;;;;5.18;1.13;;;14.70;82.40;;;;;;5051715;28;20025;-83
2021/10/05 07:29:52;;;;;;;9.13;1.17;;;14.80;82.30;;;;;;5051969;28;20030;-83
2021/10/05 07:32:18;;;;;;;11.00;1.73;;;15.00;81.10;;;;;;5036163;28;20033;-83
2021/10/05 07:34:44;;;;;;;8.05;1.00;;;15.00;80.90;;;;;;5036279;28;20033;-83
2021/10/05 07:37:10;;;;;;;7.72;1.27;;;15.20;81.80;;;;;;5036188;28;20087;-83
2021/10/05 07:39:37;;;;;;;7.03;1.35;;;15.40;81.70;;;;;;5053364;28;20033;-83
2021/10/05 07:42:03;;;;;;;7.78;1.55;;;15.40;80.90;;;;;;5055097;28;20029;-83
2021/10/05 07:44:30;;;;;;;12.88;1.50;;;15.70;80.80;;;;;;5054631;28;20021;-84
2021/10/05 07:46:58;;;;;;;9.05;1.40;;;16.30;79.90;;;;;;5043617;28;20037;-84
2021/10/05 07:49:24;;;;;;;11.75;1.85;;;16.40;78.10;;;;;;5036137;28;20369;-83
2021/10/05 07:51:50;;;;;;;7.75;0.90;;;16.00;78.00;;;;;;5036136;28;20014;-84
2021/10/05 07:54:16;;;;;;;10.77;1.45;;;15.70;80.20;;;;;;5053390;28;20104;-83
2021/10/05 07:56:41;;;;;;;8.43;1.15;;;15.40;79.90;;;;;;5054479;28;20506;-84
2021/10/05 07:59:07;;;;;;;7.25;0.95;;;15.10;80.50;;;;;;5049027;28;20031;-83
2021/10/05 08:01:36;;;;;;;11.55;1.30;;;14.90;79.80;;;;;;5035700;28;20200;-83
2021/10/05 08:04:01;;;;;;;8.93;1.02;;;15.00;83.50;;;;;;5034272;28;20060;-83
2021/10/05 08:06:27;;;;;;;8.57;1.70;;;14.90;81.50;;;;;;5035477;28;20025;-84
2021/10/05 08:08:53;;;;;;;5.97;0.98;;;14.80;82.40;;;;;;5035261;28;20500;-83
2021/10/05 08:11:19;;;;;;;6.43;1.00;;;14.80;83.10;;;;;;5055630;28;20040;-83
2021/10/05 08:13:45;;;;;;;6.38;1.45;;;14.80;83.60;;;;;;5055674;28;20013;-84
2021/10/05 08:16:11;;;;;;;6.30;1.10;;;14.80;82.60;;;;;;5050939;28;20501;-83
2021/10/05 08:18:37;;;;;;;8.52;1.50;;;14.90;83.20;;;;;;5034425;28;20152;-84
2021/10/05 08:21:03;;;;;;;9.20;1.48;;;14.90;82.80;;;;;;5034292;28;20061;-83
2021/10/05 08:23:30;;;;;;;6.25;1.33;;;14.90;83.50;;;;;;5035221;28;20033;-83
2021/10/05 08:25:56;;;;;;;5.20;1.08;;;14.90;83.10;;;;;;5071065;28;20111;-83
2021/10/05 08:28:22;;;;;;;7.72;1.33;;;14.90;82.20;;;;;;5061438;28;20057;-83
2021/10/05 08:30:48;;;;;;;8.27;1.58;;;15.00;83.10;;;;;;5035564;28;20021;-83
2021/10/05 08:33:14;;;;;;;13.05;1.42;;;15.00;82.50;;;;;;5045759;28;20044;-83
2021/10/05 08:35:40;;;;;;;10.10;1.70;;;15.10;83.40;;;;;;5055166;28;20037;-83
2021/10/05 08:38:06;;;;;;;8.77;1.80;;;15.10;81.50;;;;;;5053570;28;20028;-83
2021/10/05 08:40:33;;;;;;;8.05;1.50;;;15.10;81.00;;;;;;5052048;28;20032;-83
2021/10/05 08:43:00;;;;;;;6.72;1.40;;;15.10;81.60;;;;;;5037654;28;20064;-84
2021/10/05 08:45:26;;;;;;;11.00;1.40;;;15.20;82.20;;;;;;5055245;28;20025;-84
2021/10/05 08:47:52;;;;;;;10.23;1.40;;;15.20;82.60;;;;;;5053673;28;20041;-83
2021/10/05 08:50:19;;;;;;;7.82;1.42;;;15.20;81.10;;;;;;5055106;28;20036;-83
2021/10/05 08:52:45;;;;;;;8.90;1.42;;;15.30;80.00;;;;;;5053857;28;20116;-83
2021/10/05 08:55:11;;;;;;;10.52;1.70;;;15.30;80.40;;;;;;5053665;28;20108;-83
2021/10/05 08:57:37;;;;;;;9.02;2.20;;;15.30;81.10;;;;;;5039754;28;20025;-83
2021/10/05 09:00:06;;;;;;;9.00;1.38;;;15.30;79.40;;;;;;5035492;28;20044;-83
2021/10/05 09:02:50;;;;;;;10.30;1.52;;;15.30;79.50;;;;;;5034883;28;20021;-83
2021/10/05 09:05:17;;;;;;;10.32;1.27;;;15.50;80.70;;;;;;5035011;28;20026;-83
2021/10/05 09:07:45;;;;;;;7.53;1.30;;;15.50;79.20;;;;;;5052584;28;20487;-83
2021/10/05 09:10:14;;;;;;;12.02;1.30;;;15.60;81.80;;;;;;5054699;28;20048;-83
2021/10/05 09:12:40;;;;;;;8.15;1.73;;;15.70;81.60;;;;;;5048028;28;20025;-83
2021/10/05 09:15:09;;;;;;;8.77;2.08;;;15.70;78.70;;;;;;5034963;28;20079;-82
2021/10/05 09:17:34;;;;;;;8.30;1.30;;;15.90;80.00;;;;;;5047602;28;20021;-83
2021/10/05 09:20:00;;;;;;;13.15;1.60;;;15.90;79.20;;;;;;5053177;28;20044;-84
2021/10/05 09:22:29;;;;;;;7.85;1.95;;;16.00;79.20;;;;;;5054575;28;20108;-83
2021/10/05 09:24:57;;;;;;;7.43;1.75;;;15.90;78.30;;;;;;5064191;28;20379;-83
2021/10/05 09:27:23;;;;;;;7.32;1.63;;;16.10;79.10;;;;;;5054312;28;20513;-83
2021/10/05 09:29:52;;;;;;;7.88;1.33;;;16.20;78.80;;;;;;5054787;28;20107;-82
2021/10/05 09:32:20;;;;;;;13.18;1.73;;;16.20;77.90;;;;;;5053346;28;20616;-82
2021/10/05 09:34:50;;;;;;;4.80;1.08;;;16.30;78.70;;;;;;5055598;28;20044;-82
2021/10/05 09:37:20;;;;;;;9.20;1.60;;;16.30;76.60;;;;;;5055477;28;20033;-82
2021/10/05 09:39:51;;;;;;;9.40;1.10;;;16.50;78.40;;;;;;5058076;28;20029;-82
2021/10/05 09:42:43;;;;;;;3.72;0.90;;;16.60;76.70;;;;;;5046144;28;20403;-82
2021/10/05 09:45:16;;;;;;;10.98;1.10;;;16.70;76.50;;;;;;5038533;28;20033;-83
2021/10/05 09:47:43;;;;;;;6.18;1.20;;;16.70;76.60;;;;;;5038170;28;20052;-83
2021/10/05 09:50:28;;;;;;;6.47;1.20;;;16.80;75.60;;;;;;5037024;28;20017;-83
2021/10/05 09:52:56;;;;;;;5.63;1.00;;;16.90;75.90;;;;;;5038344;28;20049;-84
2021/10/05 09:55:25;;;;;;;7.82;0.93;;;16.80;73.40;;;;;;5037910;28;20061;-82
2021/10/05 09:57:52;;;;;;;8.63;1.27;;;16.80;74.60;;;;;;5056833;28;20097;-83
2021/10/05 10:00:20;;;;;;;9.68;1.42;;;16.80;74.70;;;;;;5058077;28;20036;-83
2021/10/05 10:02:46;;;;;;;3.28;0.70;;;16.80;74.30;;;;;;5057342;28;20029;-83
2021/10/05 10:05:15;;;;;;;7.78;1.52;;;16.80;74.40;;;;;;5038289;28;20063;-84
2021/10/05 10:07:44;;;;;;;4.18;1.05;;;16.80;74.10;;;;;;5037920;28;20029;-83
2021/10/05 10:10:13;;;;;;;6.95;1.50;;;16.90;72.20;;;;;;5037864;28;20060;-84
2021/10/05 10:12:53;;;;;;;6.45;0.93;;;17.00;73.60;;;;;;5046360;28;20070;-83
2021/10/05 10:15:22;;;;;;;;;;;17.20;73.30;;;;;;5058306;28;20027;-84
2021/10/05 10:17:47;;;;;;;8.55;1.23;;;17.30;73.50;;;;;;5039596;28;19909;-84
2021/10/05 10:20:25;;;;;;;6.35;1.30;;;17.30;72.00;;;;;;5037793;28;20049;-83
2021/10/05 10:22:51;;;;;;;4.88;1.30;;;17.30;72.80;;;;;;5047684;28;20017;-83
2021/10/05 10:25:26;;;;;;;5.50;0.88;;;17.40;72.50;;;;;;5070025;28;20027;-83
2021/10/05 10:27:56;;;;;;;6.57;1.73;;;17.50;70.70;;;;;;5037669;28;20045;-84
2021/10/05 10:30:28;;;;;;;5.07;1.33;;;17.70;69.00;;;;;;5037570;28;20084;-83
2021/10/05 10:33:04;;;;;;;2.15;0.82;;;17.80;68.10;;;;;;5035973;28;20040;-83
2021/10/05 10:35:29;;;;;;;4.15;0.70;;;17.90;68.80;;;;;;5037594;28;20026;-84
2021/10/05 10:37:56;;;;;;;8.65;1.42;;;17.80;69.70;;;;;;5037423;28;20151;-83
2021/10/05 10:40:51;;;;;;;3.28;0.90;;;17.60;69.10;;;;;;5037241;28;20085;-84
2021/10/05 10:43:20;;;;;;;3.00;1.27;;;17.50;68.00;;;;;;5037406;28;20033;-83
2021/10/05 10:45:54;;;;;;;4.35;0.98;;;17.50;67.00;;;;;;5044268;28;20117;-83
2021/10/05 10:48:35;;;;;;;6.28;0.98;;;17.50;68.30;;;;;;5036959;28;20041;-83
2021/10/05 10:51:14;;;;;;;3.97;0.95;;;17.50;67.40;;;;;;5037229;28;20503;-83
2021/10/05 10:53:41;;;;;;;2.72;0.80;;;17.50;68.30;;;;;;5052398;28;20029;-83
2021/10/05 10:56:07;;;;;;;6.63;1.20;;;17.70;69.40;;;;;;5040532;28;20429;-83
2021/10/05 10:58:41;;;;;;;5.22;0.95;;;17.70;66.00;;;;;;5055584;28;20119;-83
2021/10/05 11:01:08;;;;;;;4.18;1.20;;;17.80;66.80;;;;;;5057044;28;20440;-83
2021/10/05 11:03:34;;;;;;;4.43;1.10;;;18.00;66.30;;;;;;5056956;28;20060;-84
2021/10/05 11:06:01;;;;;;;5.20;0.90;;;18.20;65.90;;;;;;5052620;28;20519;-84
2021/10/05 11:08:26;;;;;;;2.25;0.65;;;18.30;66.20;;;;;;5056508;28;20032;-83
2021/10/05 11:10:52;;;;;;;4.10;0.73;;;18.30;67.00;;;;;;5056798;28;20021;-84
2021/10/05 11:13:18;;;;;;;5.47;1.05;;;18.40;62.10;;;;;;5048676;28;20025;-83
2021/10/05 11:15:47;;;;;;;5.35;1.00;;;18.40;63.00;;;;;;5056460;28;20025;-84
2021/10/05 11:18:19;;;;;;;3.15;0.63;;;18.20;64.10;;;;;;5038623;28;20029;-83
2021/10/05 11:20:47;;;;;;;7.13;1.05;;;18.10;62.60;;;;;;5035512;28;20502;-83
2021/10/05 11:23:17;;;;;;;4.90;1.85;;;18.10;63.40;;;;;;5042962;28;20029;-84
2021/10/05 11:25:48;;;;;;;5.63;1.30;;;18.00;62.00;;;;;;5067496;28;20024;-83
2021/10/05 11:28:17;;;;;;;4.40;0.88;;;18.10;62.90;;;;;;5056714;28;20201;-84
2021/10/05 11:30:54;;;;;;;2.08;0.75;;;18.10;61.50;;;;;;5035168;28;20119;-83
2021/10/05 11:33:38;;;;;;;4.35;0.70;;;17.90;60.20;;;;;;5038902;28;20029;-83
2021/10/05 11:36:25;;;;;;;1.58;0.57;;;17.90;60.90;;;;;;5048683;28;20025;-85
2021/10/05 11:38:52;;;;;;;3.53;0.55;;;18.00;62.10;;;;;;5056356;28;20089;-85
2021/10/05 11:41:20;;;;;;;4.53;0.95;;;18.00;62.20;;;;;;5056239;28;20100;-84
2021/10/05 11:43:51;;;;;;;2.53;0.70;;;18.00;61.40;;;;;;5054943;28;20068;-83
2021/10/05 11:46:19;;;;;;;1.55;0.60;;;17.90;60.90;;;;;;5035985;28;20024;-83
2021/10/05 11:48:45;;;;;;;3.13;0.75;;;18.00;60.90;;;;;;5035842;28;20191;-84
2021/10/05 11:51:12;;;;;;;4.68;0.80;;;18.10;59.90;;;;;;5035918;28;20029;-83
2021/10/05 11:53:39;;;;;;;4.45;0.80;;;18.20;61.40;;;;;;5037578;28;20025;-83
2021/10/05 11:56:06;;;;;;;3.60;0.82;;;18.30;59.30;;;;;;5055070;28;20013;-84
2021/10/05 11:58:49;;;;;;;4.50;0.93;;;18.30;59.60;;;;;;5055685;28;20094;-84
2021/10/05 12:01:27;;;;;;;4.57;0.50;;;18.30;59.70;;;;;;5045712;28;20108;-83
2021/10/05 12:03:58;;;;;;;7.93;0.70;;;18.60;59.20;;;;;;5047092;28;20029;-84
2021/10/05 12:06:34;;;;;;;7.53;1.15;;;18.80;58.10;;;;;;5043055;28;20377;-84
2021/10/05 12:09:01;;;;;;;4.28;1.00;;;18.90;57.90;;;;;;5035975;28;20483;-84
2021/10/05 12:11:37;;;;;;;3.75;0.65;;;19.10;56.70;;;;;;5051079;28;20026;-83
2021/10/05 12:14:03;;;;;;;4.53;0.63;;;19.10;56.10;;;;;;5053454;28;20078;-84
2021/10/05 12:16:29;;;;;;;3.30;0.70;;;19.00;55.70;;;;;;5055504;28;20044;-84
2021/10/05 12:18:57;;;;;;;3.33;0.52;;;18.80;57.10;;;;;;5045172;28;20029;-85
2021/10/05 12:21:22;;;;;;;3.20;0.70;;;18.40;60.10;;;;;;5050898;28;20048;-84
2021/10/05 12:23:51;;;;;;;3.38;0.55;;;18.30;63.60;;;;;;5036334;28;20026;-83
2021/10/05 12:26:17;;;;;;;3.45;1.20;;;18.30;64.50;;;;;;5067347;28;20017;-84
2021/10/05 12:29:04;;;;;;;3.40;0.93;;;18.00;65.20;;;;;;5055368;28;20401;-83
2021/10/05 12:31:31;;;;;;;3.60;0.85;;;17.80;65.50;;;;;;5055404;28;20033;-84
2021/10/05 12:34:03;;;;;;;3.33;0.93;;;17.80;65.90;;;;;;5049776;28;20021;-83
2021/10/05 12:36:31;;;;;;;2.40;0.70;;;17.60;66.50;;;;;;5042404;28;20028;-84
2021/10/05 12:39:16;;;;;;;3.85;0.60;;;17.50;66.80;;;;;;5038363;28;20517;-83
2021/10/05 12:41:54;;;;;;;5.68;1.40;;;17.50;67.10;;;;;;5035259;28;20895;-84
2021/10/05 12:44:19;;;;;;;2.78;0.70;;;17.40;67.10;;;;;;5048767;28;20028;-83
2021/10/05 12:46:56;;;;;;;2.55;0.63;;;17.60;66.30;;;;;;5054938;28;20033;-83
2021/10/05 12:49:22;;;;;;;6.35;1.55;;;17.90;65.20;;;;;;5055286;28;20056;-84
2021/10/05 12:51:50;;;;;;;4.38;0.80;;;18.10;65.00;;;;;;5045237;28;20030;-83
2021/10/05 12:54:16;;;;;;;2.88;0.80;;;18.30;61.60;;;;;;5035277;28;20021;-84
2021/10/05 12:56:42;;;;;;;5.47;0.98;;;18.40;62.50;;;;;;5035311;28;20087;-84